KKP49 ZSPD-YSSY
Flight info
| Callsign | KKP49 |
|---|---|
| Flight time | N/A |
| Altitude | 35000 |
| Route | LAM81D LAMEN A593 SADLI Y590 BEDAR Y591 ISPIT Z41 AGIKA G339 SABGU/N0504F340 A339 KEITH/N0502F350 R204 KEONE/N0497F370 R204 KIMMI/N0489F390 R204 CS Y177 AKROM Y153 KANKO DCT SULMI DCT OVNOM H652 BOREE |
| Aircraft | A35K/H-SDE2E3GHIJ3J4J5LM1ORWXY/LB1D1 |
Departure
| Time | 2026-05-06 03:00 |
|---|---|
| Airport | Shanghai Pudong International Airport (ZSPD) |
Arrival
| Time | N/A |
|---|---|
| Airport | Sydney Kingsford Smith International Airport (YSSY) |
| Time | Latitude | Longitude | Altitude | Speed | Heading |
|---|---|---|---|---|---|
| 2026-05-06 02:42 | 31.15137 | 121.79660 | 17 ft | 0 kts | 70° |
| 2026-05-06 02:44 | 31.15136 | 121.79658 | 18 ft | 0 kts | 70° |
| 2026-05-06 02:44 | 31.15132 | 121.79646 | 21 ft | 2 kts | 67° |
| 2026-05-06 02:45 | 31.15125 | 121.79628 | 19 ft | 2 kts | 63° |
| 2026-05-06 02:45 | 31.15118 | 121.79612 | 21 ft | 2 kts | 58° |
| 2026-05-06 02:45 | 31.15108 | 121.79596 | 19 ft | 2 kts | 51° |
| 2026-05-06 02:45 | 31.15097 | 121.79582 | 19 ft | 2 kts | 40° |
| 2026-05-06 02:46 | 31.15084 | 121.79571 | 19 ft | 2 kts | 27° |
| 2026-05-06 02:46 | 31.15069 | 121.79564 | 21 ft | 2 kts | 10° |
| 2026-05-06 02:46 | 31.15052 | 121.79563 | 19 ft | 2 kts | 355° |
| 2026-05-06 02:46 | 31.15038 | 121.79565 | 19 ft | 1 kts | 345° |
| 2026-05-06 02:47 | 31.15034 | 121.79567 | 17 ft | 0 kts | 344° |
| 2026-05-06 02:54 | 31.15049 | 121.79562 | 20 ft | 6 kts | 346° |
| 2026-05-06 02:54 | 31.15117 | 121.79537 | 20 ft | 15 kts | 342° |
| 2026-05-06 02:54 | 31.15238 | 121.79492 | 19 ft | 21 kts | 340° |
| 2026-05-06 02:54 | 31.15276 | 121.79358 | 20 ft | 18 kts | 259° |
| 2026-05-06 02:55 | 31.15310 | 121.79237 | 19 ft | 16 kts | 333° |
| 2026-05-06 02:55 | 31.15418 | 121.79191 | 19 ft | 17 kts | 342° |
| 2026-05-06 02:55 | 31.15500 | 121.79108 | 18 ft | 16 kts | 286° |
| 2026-05-06 02:55 | 31.15579 | 121.79022 | 18 ft | 16 kts | 338° |
| 2026-05-06 02:56 | 31.15691 | 121.78979 | 20 ft | 18 kts | 342° |
| 2026-05-06 02:56 | 31.15810 | 121.78933 | 17 ft | 18 kts | 341° |
| 2026-05-06 02:56 | 31.15933 | 121.78886 | 22 ft | 19 kts | 342° |
| 2026-05-06 02:56 | 31.16061 | 121.78838 | 18 ft | 20 kts | 343° |
| 2026-05-06 02:57 | 31.16139 | 121.78777 | 21 ft | 0 kts | 296° |
| 2026-05-06 02:57 | 31.16140 | 121.78772 | 21 ft | 4 kts | 286° |
| 2026-05-06 02:57 | 31.16133 | 121.78691 | 20 ft | 16 kts | 254° |
| 2026-05-06 02:58 | 31.16023 | 121.78630 | 17 ft | 23 kts | 162° |
| 2026-05-06 02:58 | 31.15979 | 121.78647 | 17 ft | 0 kts | 163° |
| 2026-05-06 02:59 | 31.15862 | 121.78691 | 18 ft | 44 kts | 162° |
| 2026-05-06 02:59 | 31.15393 | 121.78870 | 17 ft | 97 kts | 162° |
| 2026-05-06 02:59 | 31.14605 | 121.79167 | 20 ft | 141 kts | 162° |
| 2026-05-06 03:00 | 31.13551 | 121.79573 | 109 ft | 171 kts | 161° |
| 2026-05-06 03:00 | 31.12429 | 121.80021 | 642 ft | 167 kts | 160° |
| 2026-05-06 03:00 | 31.11363 | 121.80447 | 1246 ft | 160 kts | 164° |
| 2026-05-06 03:00 | 31.10257 | 121.80862 | 1303 ft | 185 kts | 163° |
| 2026-05-06 03:01 | 31.08926 | 121.81341 | 1489 ft | 206 kts | 162° |
| 2026-05-06 03:01 | 31.07508 | 121.81897 | 1882 ft | 224 kts | 162° |
| 2026-05-06 03:01 | 31.06001 | 121.82479 | 2320 ft | 237 kts | 162° |
| 2026-05-06 03:01 | 31.04366 | 121.83035 | 2860 ft | 247 kts | 168° |
| 2026-05-06 03:02 | 31.02670 | 121.83435 | 3490 ft | 251 kts | 168° |
| 2026-05-06 03:02 | 31.00975 | 121.83826 | 4034 ft | 252 kts | 166° |
| 2026-05-06 03:02 | 30.99274 | 121.84318 | 4627 ft | 252 kts | 163° |
| 2026-05-06 03:02 | 30.97611 | 121.84964 | 5190 ft | 254 kts | 157° |
| 2026-05-06 03:03 | 30.95969 | 121.85802 | 5605 ft | 262 kts | 154° |
| 2026-05-06 03:03 | 30.94283 | 121.86678 | 6087 ft | 268 kts | 157° |
| 2026-05-06 03:03 | 30.92538 | 121.87478 | 6654 ft | 271 kts | 160° |
| 2026-05-06 03:03 | 30.90744 | 121.88188 | 7211 ft | 275 kts | 163° |
| 2026-05-06 03:04 | 30.89507 | 121.88643 | 7563 ft | 277 kts | 163° |
| 2026-05-06 03:04 | 30.87651 | 121.89316 | 8154 ft | 281 kts | 164° |
| 2026-05-06 03:04 | 30.85809 | 121.89997 | 8693 ft | 285 kts | 164° |
| 2026-05-06 03:04 | 30.83887 | 121.90735 | 9273 ft | 290 kts | 162° |
| 2026-05-06 03:05 | 30.82123 | 121.91912 | 9751 ft | 299 kts | 139° |
| 2026-05-06 03:05 | 30.80951 | 121.93880 | 10232 ft | 305 kts | 111° |
| 2026-05-06 03:05 | 30.80636 | 121.96348 | 10455 ft | 318 kts | 83° |
| 2026-05-06 03:05 | 30.81354 | 121.98807 | 10710 ft | 328 kts | 60° |
| 2026-05-06 03:06 | 30.82324 | 122.01297 | 10966 ft | 341 kts | 71° |
| 2026-05-06 03:06 | 30.83063 | 122.03932 | 11227 ft | 353 kts | 71° |
| 2026-05-06 03:06 | 30.83835 | 122.06693 | 11477 ft | 365 kts | 71° |
| 2026-05-06 03:06 | 30.84640 | 122.09576 | 11762 ft | 375 kts | 71° |
| 2026-05-06 03:07 | 30.85452 | 122.12492 | 12020 ft | 384 kts | 71° |
| 2026-05-06 03:07 | 30.86276 | 122.15456 | 12249 ft | 394 kts | 71° |
| 2026-05-06 03:07 | 30.87135 | 122.18552 | 12536 ft | 401 kts | 71° |
| 2026-05-06 03:07 | 30.87995 | 122.21655 | 12916 ft | 405 kts | 71° |
| 2026-05-06 03:08 | 30.88860 | 122.24781 | 13231 ft | 410 kts | 71° |
| 2026-05-06 03:08 | 30.89828 | 122.27901 | 13663 ft | 411 kts | 67° |
| 2026-05-06 03:08 | 30.91340 | 122.30657 | 14050 ft | 410 kts | 50° |
| 2026-05-06 03:08 | 30.93187 | 122.33199 | 14400 ft | 412 kts | 47° |
| 2026-05-06 03:09 | 30.95061 | 122.35723 | 14815 ft | 413 kts | 48° |
| 2026-05-06 03:09 | 30.96934 | 122.38259 | 15196 ft | 414 kts | 47° |
| 2026-05-06 03:09 | 30.98665 | 122.40945 | 15554 ft | 418 kts | 58° |
| 2026-05-06 03:09 | 30.99757 | 122.44058 | 15881 ft | 422 kts | 75° |
| 2026-05-06 03:10 | 31.00063 | 122.47466 | 16253 ft | 425 kts | 88° |
| 2026-05-06 03:10 | 31.00069 | 122.50925 | 16598 ft | 428 kts | 89° |
| 2026-05-06 03:10 | 31.00055 | 122.54396 | 16942 ft | 430 kts | 89° |
| 2026-05-06 03:10 | 31.00047 | 122.57874 | 17275 ft | 432 kts | 88° |
| 2026-05-06 03:11 | 31.00044 | 122.61400 | 17614 ft | 434 kts | 88° |
| 2026-05-06 03:11 | 31.00043 | 122.64919 | 17938 ft | 437 kts | 88° |
| 2026-05-06 03:11 | 31.00042 | 122.68470 | 18264 ft | 438 kts | 88° |
| 2026-05-06 03:11 | 31.00041 | 122.72031 | 18562 ft | 441 kts | 88° |
| 2026-05-06 03:12 | 31.00040 | 122.75613 | 18821 ft | 443 kts | 88° |
| 2026-05-06 03:12 | 31.00038 | 122.79209 | 19087 ft | 446 kts | 88° |
| 2026-05-06 03:12 | 31.00035 | 122.82838 | 19358 ft | 448 kts | 88° |
| 2026-05-06 03:12 | 31.00032 | 122.86478 | 19629 ft | 451 kts | 88° |
| 2026-05-06 03:13 | 31.00027 | 122.90133 | 19924 ft | 452 kts | 88° |
| 2026-05-06 03:13 | 31.00023 | 122.93802 | 20256 ft | 454 kts | 87° |
| 2026-05-06 03:13 | 31.00245 | 122.97474 | 20536 ft | 453 kts | 77° |
| 2026-05-06 03:13 | 31.01087 | 123.00989 | 20830 ft | 450 kts | 64° |
| 2026-05-06 03:14 | 31.02568 | 123.04182 | 21130 ft | 448 kts | 53° |
| 2026-05-06 03:14 | 31.04352 | 123.07157 | 21445 ft | 449 kts | 51° |
| 2026-05-06 03:14 | 31.06188 | 123.10117 | 21748 ft | 451 kts | 51° |
| 2026-05-06 03:14 | 31.08024 | 123.13084 | 22080 ft | 453 kts | 51° |
| 2026-05-06 03:15 | 31.09867 | 123.16075 | 22371 ft | 456 kts | 51° |
| 2026-05-06 03:15 | 31.11717 | 123.19089 | 22711 ft | 458 kts | 51° |
| 2026-05-06 03:15 | 31.13575 | 123.22122 | 23058 ft | 459 kts | 51° |
| 2026-05-06 03:15 | 31.15431 | 123.25157 | 23369 ft | 462 kts | 51° |
| 2026-05-06 03:16 | 31.17300 | 123.28217 | 23680 ft | 464 kts | 51° |
| 2026-05-06 03:16 | 31.19180 | 123.31297 | 23979 ft | 465 kts | 51° |
| 2026-05-06 03:16 | 31.21055 | 123.34374 | 24327 ft | 466 kts | 51° |
| 2026-05-06 03:16 | 31.22936 | 123.37462 | 24667 ft | 466 kts | 51° |
| 2026-05-06 03:17 | 31.24820 | 123.40560 | 25010 ft | 467 kts | 51° |
| 2026-05-06 03:17 | 31.26709 | 123.43665 | 25322 ft | 469 kts | 51° |
| 2026-05-06 03:17 | 31.28597 | 123.46772 | 25657 ft | 470 kts | 51° |
| 2026-05-06 03:17 | 31.30495 | 123.49899 | 26021 ft | 471 kts | 50° |
| 2026-05-06 03:18 | 31.32393 | 123.53027 | 26341 ft | 472 kts | 50° |
| 2026-05-06 03:18 | 31.34299 | 123.56168 | 26686 ft | 474 kts | 50° |
| 2026-05-06 03:18 | 31.36221 | 123.59303 | 27015 ft | 475 kts | 50° |
| 2026-05-06 03:18 | 31.38147 | 123.62444 | 27343 ft | 476 kts | 50° |
| 2026-05-06 03:19 | 31.40077 | 123.65597 | 27675 ft | 477 kts | 50° |
| 2026-05-06 03:19 | 31.41992 | 123.68726 | 27890 ft | 480 kts | 50° |
| 2026-05-06 03:19 | 31.43933 | 123.71904 | 28259 ft | 479 kts | 50° |
| 2026-05-06 03:19 | 31.45897 | 123.75123 | 28606 ft | 480 kts | 50° |
| 2026-05-06 03:20 | 31.49754 | 123.81453 | 29139 ft | 482 kts | 50° |
| 2026-05-06 03:20 | 31.51699 | 123.84649 | 29533 ft | 480 kts | 50° |
| 2026-05-06 03:20 | 31.53634 | 123.87833 | 29971 ft | 478 kts | 50° |
| 2026-05-06 03:21 | 31.55555 | 123.90997 | 30355 ft | 475 kts | 50° |
| 2026-05-06 03:21 | 31.57469 | 123.94151 | 30614 ft | 475 kts | 50° |
| 2026-05-06 03:21 | 31.59336 | 123.97355 | 30932 ft | 476 kts | 53° |
| 2026-05-06 03:21 | 31.60887 | 124.00777 | 31302 ft | 478 kts | 61° |
| 2026-05-06 03:22 | 31.62027 | 124.04466 | 31542 ft | 483 kts | 68° |
| 2026-05-06 03:22 | 31.62961 | 124.08264 | 31768 ft | 485 kts | 69° |
| 2026-05-06 03:22 | 31.63824 | 124.12089 | 32006 ft | 485 kts | 70° |
| 2026-05-06 03:22 | 31.64658 | 124.15928 | 32253 ft | 485 kts | 70° |
| 2026-05-06 03:23 | 31.65482 | 124.19759 | 32492 ft | 485 kts | 70° |
| 2026-05-06 03:23 | 31.66312 | 124.23599 | 32773 ft | 483 kts | 70° |
| 2026-05-06 03:23 | 31.67140 | 124.27397 | 33115 ft | 480 kts | 70° |
| 2026-05-06 03:23 | 31.67973 | 124.31188 | 33293 ft | 481 kts | 70° |
| 2026-05-06 03:24 | 31.68815 | 124.34997 | 33422 ft | 482 kts | 69° |
| 2026-05-06 03:24 | 31.69659 | 124.38805 | 33639 ft | 482 kts | 69° |
| 2026-05-06 03:24 | 31.70500 | 124.42609 | 33870 ft | 481 kts | 69° |
| 2026-05-06 03:24 | 31.71338 | 124.46406 | 34076 ft | 480 kts | 69° |
| 2026-05-06 03:25 | 31.72174 | 124.50201 | 34292 ft | 479 kts | 70° |
| 2026-05-06 03:25 | 31.73003 | 124.53972 | 34481 ft | 478 kts | 70° |
| 2026-05-06 03:25 | 31.74670 | 124.61565 | 34677 ft | 480 kts | 70° |
| 2026-05-06 03:26 | 31.75500 | 124.65360 | 34804 ft | 481 kts | 70° |
| 2026-05-06 03:26 | 31.76333 | 124.69170 | 34916 ft | 481 kts | 70° |
| 2026-05-06 03:26 | 31.78001 | 124.76815 | 34988 ft | 486 kts | 71° |
| 2026-05-06 03:27 | 31.79678 | 124.84530 | 35097 ft | 489 kts | 71° |
| 2026-05-06 03:27 | 31.81354 | 124.92278 | 35099 ft | 489 kts | 71° |
| 2026-05-06 03:28 | 31.82438 | 125.00207 | 35107 ft | 497 kts | 85° |
| 2026-05-06 03:28 | 31.81730 | 125.08306 | 35101 ft | 505 kts | 96° |
| 2026-05-06 03:29 | 31.80425 | 125.16448 | 35099 ft | 507 kts | 97° |
| 2026-05-06 03:29 | 31.79035 | 125.24575 | 35100 ft | 507 kts | 97° |
| 2026-05-06 03:30 | 31.77663 | 125.32730 | 35103 ft | 510 kts | 98° |
| 2026-05-06 03:30 | 31.76302 | 125.40928 | 35100 ft | 511 kts | 98° |
| 2026-05-06 03:31 | 31.74941 | 125.49130 | 35105 ft | 511 kts | 98° |
| 2026-05-06 03:31 | 31.73582 | 125.57329 | 35100 ft | 512 kts | 99° |
| 2026-05-06 03:32 | 31.72687 | 125.65594 | 35100 ft | 509 kts | 87° |
| 2026-05-06 03:32 | 31.73653 | 125.73769 | 35099 ft | 505 kts | 75° |
| 2026-05-06 03:33 | 31.75376 | 125.81779 | 35100 ft | 508 kts | 73° |
| 2026-05-06 03:33 | 31.77237 | 125.89837 | 35100 ft | 514 kts | 73° |
| 2026-05-06 03:34 | 31.79075 | 125.97970 | 35099 ft | 515 kts | 74° |
| 2026-05-06 03:34 | 31.80864 | 126.06115 | 35100 ft | 513 kts | 73° |
| 2026-05-06 03:35 | 31.82615 | 126.14186 | 35096 ft | 507 kts | 73° |
| 2026-05-06 03:35 | 31.84358 | 126.22229 | 35098 ft | 507 kts | 73° |
| 2026-05-06 03:36 | 31.86103 | 126.30279 | 35102 ft | 510 kts | 75° |
| 2026-05-06 03:36 | 31.87861 | 126.38423 | 35101 ft | 517 kts | 75° |
| 2026-05-06 03:37 | 31.89617 | 126.46598 | 35107 ft | 518 kts | 74° |
| 2026-05-06 03:37 | 31.91395 | 126.54770 | 35100 ft | 516 kts | 75° |
| 2026-05-06 03:38 | 31.93218 | 126.62990 | 35096 ft | 522 kts | 75° |
| 2026-05-06 03:38 | 31.95057 | 126.71312 | 35106 ft | 526 kts | 75° |
| 2026-05-06 03:39 | 31.96891 | 126.79663 | 35095 ft | 528 kts | 77° |
| 2026-05-06 03:39 | 31.98728 | 126.88077 | 35099 ft | 531 kts | 76° |
| 2026-05-06 03:40 | 32.00556 | 126.96468 | 35099 ft | 526 kts | 76° |
| 2026-05-06 03:40 | 32.02374 | 127.04832 | 35096 ft | 529 kts | 77° |
| 2026-05-06 03:41 | 32.04473 | 127.13195 | 35101 ft | 536 kts | 68° |
| 2026-05-06 03:41 | 32.07391 | 127.21327 | 35111 ft | 540 kts | 66° |
| 2026-05-06 03:42 | 32.09772 | 127.29652 | 35097 ft | 535 kts | 83° |
| 2026-05-06 03:42 | 32.10122 | 127.34006 | 35092 ft | 533 kts | 94° |
| 2026-05-06 03:42 | 32.09816 | 127.38277 | 35097 ft | 529 kts | 105° |
| 2026-05-06 03:43 | 32.08846 | 127.42445 | 35094 ft | 523 kts | 116° |
| 2026-05-06 03:43 | 32.07315 | 127.46296 | 35100 ft | 517 kts | 123° |
| 2026-05-06 03:43 | 32.03767 | 127.53654 | 35091 ft | 515 kts | 128° |
| 2026-05-06 03:44 | 32.00097 | 127.60890 | 35094 ft | 515 kts | 129° |
| 2026-05-06 03:44 | 31.96441 | 127.68151 | 35091 ft | 515 kts | 128° |
| 2026-05-06 03:45 | 31.92815 | 127.75422 | 35089 ft | 516 kts | 130° |
| 2026-05-06 03:45 | 31.89189 | 127.82708 | 35091 ft | 516 kts | 130° |
| 2026-05-06 03:46 | 31.85554 | 127.90005 | 35089 ft | 516 kts | 130° |
| 2026-05-06 03:46 | 31.81916 | 127.97288 | 35079 ft | 516 kts | 131° |
| 2026-05-06 03:47 | 31.78270 | 128.04569 | 35089 ft | 518 kts | 131° |
| 2026-05-06 03:47 | 31.74639 | 128.11804 | 35084 ft | 517 kts | 131° |
| 2026-05-06 03:48 | 31.70984 | 128.19075 | 35080 ft | 517 kts | 131° |
| 2026-05-06 03:48 | 31.67330 | 128.26335 | 35084 ft | 514 kts | 131° |
| 2026-05-06 03:49 | 31.63696 | 128.33540 | 35083 ft | 513 kts | 131° |
| 2026-05-06 03:49 | 31.60055 | 128.40737 | 35084 ft | 513 kts | 131° |
| 2026-05-06 03:50 | 31.56413 | 128.47924 | 35081 ft | 512 kts | 131° |
| 2026-05-06 03:50 | 31.53388 | 128.53885 | 35078 ft | 512 kts | 131° |
| 2026-05-06 03:51 | 31.49742 | 128.61058 | 35080 ft | 512 kts | 131° |
| 2026-05-06 03:51 | 31.45500 | 128.69391 | 35072 ft | 511 kts | 132° |
| 2026-05-06 03:52 | 31.42460 | 128.75355 | 35077 ft | 509 kts | 132° |
| 2026-05-06 03:52 | 31.38829 | 128.82458 | 35077 ft | 508 kts | 132° |
| 2026-05-06 03:53 | 31.35200 | 128.89540 | 35061 ft | 508 kts | 132° |
| 2026-05-06 03:53 | 31.31570 | 128.96619 | 35075 ft | 506 kts | 132° |
| 2026-05-06 03:54 | 31.27969 | 129.03627 | 35075 ft | 505 kts | 132° |
| 2026-05-06 03:54 | 31.24348 | 129.10658 | 35076 ft | 505 kts | 132° |
| 2026-05-06 03:55 | 31.20725 | 129.17678 | 35074 ft | 504 kts | 132° |
| 2026-05-06 03:55 | 31.17114 | 129.24670 | 35072 ft | 502 kts | 132° |